Time;durP1;ratioP1;P1;durP2;ratioP2;P2;SDS_P1;SDS_P2;PMS_P1;PMS_P2;Temp;Humidity;BMP_temperature;BMP_pressure;BME280_temperature;BME280_humidity;BME280_pressure;Samples;Min_cycle;Max_cycle;Signal;HPM_P1;HPM_P2
2021/01/30 00:00:31;;;;;;;1.55;0.40;;;14.00;57.40;;;;;;6290706;22;20039;-79
2021/01/30 00:02:57;;;;;;;2.42;0.50;;;14.00;57.50;;;;;;6288762;22;20030;-78
2021/01/30 00:05:24;;;;;;;2.00;0.60;;;14.00;58.10;;;;;;6288616;22;20311;-79
2021/01/30 00:07:50;;;;;;;1.75;0.65;;;14.00;57.50;;;;;;6279559;22;20459;-79
2021/01/30 00:10:17;;;;;;;1.58;0.77;;;14.00;57.50;;;;;;6291044;22;20012;-79
2021/01/30 00:12:44;;;;;;;1.25;0.40;;;14.00;57.50;;;;;;6290048;22;20133;-79
2021/01/30 00:15:11;;;;;;;1.77;0.60;;;14.00;57.50;;;;;;6289820;22;20424;-79
2021/01/30 00:17:37;;;;;;;1.58;0.70;;;14.00;57.50;;;;;;6289691;22;20301;-78
2021/01/30 00:20:05;;;;;;;1.85;0.65;;;14.00;57.40;;;;;;6290879;22;20008;-78
2021/01/30 00:22:31;;;;;;;1.73;0.60;;;14.00;57.30;;;;;;6290005;22;20019;-79
2021/01/30 00:24:57;;;;;;;1.80;0.52;;;13.90;57.30;;;;;;6283412;22;20019;-79
2021/01/30 00:27:23;;;;;;;2.20;0.60;;;13.90;57.20;;;;;;6290081;22;20317;-78
2021/01/30 00:29:49;;;;;;;2.60;0.50;;;13.90;57.20;;;;;;6289394;22;20443;-79
2021/01/30 00:32:18;;;;;;;1.83;0.70;;;13.90;57.20;;;;;;6280034;22;20026;-79
2021/01/30 00:34:44;;;;;;;2.58;0.65;;;13.90;57.20;;;;;;6289861;22;20420;-79
2021/01/30 00:37:16;;;;;;;3.60;0.73;;;13.90;57.30;;;;;;6289266;22;20016;-79
2021/01/30 00:39:42;;;;;;;2.72;0.63;;;13.90;57.20;;;;;;6289660;22;20043;-79
2021/01/30 00:42:11;;;;;;;2.72;0.40;;;13.90;57.30;;;;;;6288790;22;20428;-78
2021/01/30 00:44:37;;;;;;;1.52;0.82;;;13.90;57.30;;;;;;6290342;22;20015;-78
2021/01/30 00:47:05;;;;;;;2.75;0.88;;;13.80;57.20;;;;;;6290360;22;20026;-79
2021/01/30 00:49:31;;;;;;;2.80;0.90;;;13.80;57.20;;;;;;6289637;22;20106;-79
2021/01/30 00:51:57;;;;;;;3.33;0.68;;;13.80;57.20;;;;;;6279754;22;20020;-79
2021/01/30 00:54:23;;;;;;;3.83;0.77;;;13.80;57.20;;;;;;6289076;22;20083;-80
2021/01/30 00:56:50;;;;;;;2.60;0.90;;;13.80;57.20;;;;;;6279307;22;20065;-80
2021/01/30 00:59:16;;;;;;;4.18;0.75;;;13.80;57.10;;;;;;6289784;22;20032;-79
2021/01/30 01:01:42;;;;;;;1.80;0.70;;;13.80;57.00;;;;;;6289477;22;20016;-79
2021/01/30 01:04:08;;;;;;;1.48;0.68;;;13.80;57.00;;;;;;6288823;22;20039;-79
2021/01/30 01:06:34;;;;;;;2.22;0.77;;;13.80;57.00;;;;;;6289514;22;20015;-79
2021/01/30 01:09:03;;;;;;;1.63;0.73;;;13.80;57.00;;;;;;6289637;22;20026;-78
2021/01/30 01:11:28;;;;;;;2.22;0.70;;;13.80;57.00;;;;;;6289973;22;20019;-79
2021/01/30 01:13:54;;;;;;;2.65;0.80;;;13.80;57.00;;;;;;6279154;22;20146;-79
2021/01/30 01:16:20;;;;;;;2.90;0.60;;;13.70;56.90;;;;;;6290385;22;20276;-78
2021/01/30 01:18:47;;;;;;;2.60;0.75;;;13.80;57.00;;;;;;6289097;22;20027;-79
2021/01/30 01:21:13;;;;;;;1.27;0.60;;;13.80;57.00;;;;;;6278411;22;20018;-79
2021/01/30 01:23:43;;;;;;;2.13;0.80;;;13.70;56.90;;;;;;6287976;22;20015;-79
2021/01/30 01:26:13;;;;;;;2.92;0.90;;;13.70;56.90;;;;;;6278376;22;20015;-79
2021/01/30 01:28:39;;;;;;;1.63;0.73;;;13.70;56.90;;;;;;6289447;22;20440;-79
2021/01/30 01:31:06;;;;;;;3.20;0.80;;;13.70;56.90;;;;;;6287697;22;20051;-79
2021/01/30 01:33:32;;;;;;;1.63;0.60;;;13.80;56.90;;;;;;6277947;22;20027;-79
2021/01/30 01:35:58;;;;;;;1.52;0.60;;;13.70;56.80;;;;;;6279389;22;20090;-79
2021/01/30 01:38:25;;;;;;;1.95;0.50;;;13.70;56.90;;;;;;6288338;22;20042;-79
2021/01/30 01:40:52;;;;;;;2.15;0.80;;;13.70;56.90;;;;;;6278169;22;20020;-79
2021/01/30 01:43:25;;;;;;;2.40;0.90;;;13.70;56.90;;;;;;6278125;22;20011;-79
2021/01/30 01:46:15;;;;;;;2.63;0.73;;;13.70;56.80;;;;;;6279212;22;20019;-79
2021/01/30 01:48:49;;;;;;;0.80;0.40;;;13.70;56.80;;;;;;6288352;22;20050;-79
2021/01/30 01:51:27;;;;;;;2.50;0.93;;;13.70;56.90;;;;;;6289036;22;20371;-78
2021/01/30 01:53:53;;;;;;;1.15;0.50;;;13.70;56.90;;;;;;6278633;22;20028;-79
2021/01/30 01:56:24;;;;;;;1.83;0.60;;;13.70;56.90;;;;;;6278669;22;20012;-79
2021/01/30 01:58:53;;;;;;;2.53;0.80;;;13.70;56.80;;;;;;6278136;22;20015;-80
2021/01/30 02:01:20;;;;;;;2.70;0.77;;;13.70;56.80;;;;;;6289614;22;20027;-79
2021/01/30 02:03:53;;;;;;;2.65;0.95;;;13.70;56.80;;;;;;6278549;22;20011;-79
2021/01/30 02:06:19;;;;;;;1.95;0.60;;;13.70;56.80;;;;;;6288100;22;20015;-79
2021/01/30 02:08:46;;;;;;;3.15;0.80;;;13.60;56.70;;;;;;6288440;22;20016;-79
2021/01/30 02:11:12;;;;;;;1.88;0.75;;;13.70;56.70;;;;;;6279160;22;20368;-80
2021/01/30 02:13:46;;;;;;;2.17;0.65;;;13.60;56.60;;;;;;6277448;22;20345;-80
2021/01/30 02:16:34;;;;;;;2.03;0.70;;;13.60;56.50;;;;;;6289967;22;20023;-79
2021/01/30 02:19:24;;;;;;;1.88;0.65;;;13.60;56.50;;;;;;6278633;22;20012;-79
2021/01/30 02:22:19;;;;;;;1.83;0.60;;;13.60;56.50;;;;;;6282364;22;20030;-79
2021/01/30 02:25:07;;;;;;;1.55;0.55;;;13.60;56.50;;;;;;6271034;22;20451;-79
2021/01/30 02:27:39;;;;;;;2.40;0.57;;;13.60;56.40;;;;;;6289500;22;20015;-79
2021/01/30 02:30:23;;;;;;;2.83;0.85;;;13.60;56.40;;;;;;6288239;22;20435;-79
2021/01/30 02:33:11;;;;;;;1.20;0.63;;;13.60;56.40;;;;;;6289318;22;20015;-79
2021/01/30 02:35:56;;;;;;;1.90;0.88;;;13.70;56.40;;;;;;6277548;22;20061;-79
2021/01/30 02:38:26;;;;;;;3.70;1.00;;;13.60;56.20;;;;;;6288204;22;20015;-79
2021/01/30 02:40:58;;;;;;;2.40;0.60;;;13.60;56.20;;;;;;6279055;22;20019;-81
2021/01/30 02:43:31;;;;;;;2.63;0.70;;;13.60;56.20;;;;;;6288585;22;20450;-79
2021/01/30 02:46:06;;;;;;;2.70;0.70;;;13.60;56.80;;;;;;6289212;22;20015;-79
2021/01/30 02:48:38;;;;;;;1.48;0.40;;;13.60;56.10;;;;;;6278891;22;20024;-79
2021/01/30 02:51:11;;;;;;;1.55;0.50;;;13.60;56.10;;;;;;6279030;22;20036;-79
2021/01/30 02:53:45;;;;;;;1.83;0.60;;;13.60;56.00;;;;;;6277493;22;20451;-79
2021/01/30 02:56:12;;;;;;;1.88;0.65;;;13.60;56.00;;;;;;6288098;22;20020;-80
2021/01/30 02:59:01;;;;;;;1.40;0.50;;;13.60;56.00;;;;;;6288910;22;20024;-79
2021/01/30 03:01:27;;;;;;;3.85;1.00;;;13.60;55.90;;;;;;6288616;22;20036;-79
2021/01/30 03:03:58;;;;;;;2.63;0.70;;;13.60;55.90;;;;;;6278098;22;20347;-79
2021/01/30 03:06:33;;;;;;;1.35;0.50;;;13.60;55.80;;;;;;6288624;22;20343;-79
2021/01/30 03:09:22;;;;;;;5.50;1.13;;;13.60;55.70;;;;;;6288867;22;20077;-79
2021/01/30 03:12:02;;;;;;;2.78;0.90;;;13.60;55.70;;;;;;6278272;22;20074;-79
2021/01/30 03:14:29;;;;;;;1.83;0.60;;;13.60;55.70;;;;;;6289695;22;20016;-78
2021/01/30 03:16:59;;;;;;;2.60;0.90;;;13.60;55.70;;;;;;6289220;22;20042;-79
2021/01/30 03:19:31;;;;;;;3.33;0.90;;;13.60;55.70;;;;;;6289491;22;20043;-79
2021/01/30 03:22:06;;;;;;;1.92;0.70;;;13.60;55.70;;;;;;6279744;22;20024;-79
2021/01/30 03:24:33;;;;;;;3.75;0.63;;;13.60;55.60;;;;;;6283713;22;20076;-79
2021/01/30 03:26:59;;;;;;;4.25;1.33;;;13.60;55.60;;;;;;6287314;22;20386;-79
2021/01/30 03:29:25;;;;;;;2.65;0.80;;;13.60;55.50;;;;;;6288755;22;20079;-79
2021/01/30 03:31:51;;;;;;;3.03;0.75;;;13.60;56.20;;;;;;6288647;22;20050;-79
2021/01/30 03:34:17;;;;;;;2.03;0.75;;;13.60;55.50;;;;;;6278586;22;20020;-79
2021/01/30 03:36:43;;;;;;;2.63;0.90;;;13.60;55.40;;;;;;6277420;22;20019;-79
2021/01/30 03:39:16;;;;;;;1.23;0.75;;;13.60;55.40;;;;;;6289567;22;20070;-79
2021/01/30 03:41:43;;;;;;;2.70;1.00;;;13.60;55.30;;;;;;6289092;22;20015;-78
2021/01/30 03:44:12;;;;;;;2.33;0.80;;;13.60;55.30;;;;;;6290132;22;20304;-79
2021/01/30 03:46:39;;;;;;;3.10;0.85;;;13.60;55.20;;;;;;6280272;22;20294;-79
2021/01/30 03:49:05;;;;;;;1.42;1.15;;;13.50;55.20;;;;;;6290825;22;20035;-79
2021/01/30 03:51:31;;;;;;;2.40;0.95;;;13.50;55.10;;;;;;6290464;22;20018;-78
2021/01/30 03:53:57;;;;;;;1.88;0.85;;;13.50;55.00;;;;;;6291316;22;20012;-80
2021/01/30 03:56:23;;;;;;;2.17;1.10;;;13.50;55.00;;;;;;6290062;22;20034;-79
2021/01/30 03:58:49;;;;;;;2.65;0.80;;;13.50;54.90;;;;;;6291255;22;20049;-78
2021/01/30 04:01:14;;;;;;;2.88;1.17;;;13.50;54.90;;;;;;6289435;22;20019;-79
2021/01/30 04:03:40;;;;;;;1.30;0.80;;;13.50;54.90;;;;;;6289421;22;20083;-79
2021/01/30 04:06:14;;;;;;;2.33;1.00;;;13.50;54.90;;;;;;6290627;22;20495;-79
2021/01/30 04:08:40;;;;;;;2.38;0.80;;;13.50;54.80;;;;;;6290582;22;20015;-79
2021/01/30 04:11:06;;;;;;;2.15;0.90;;;13.50;54.80;;;;;;6290259;22;20034;-78
2021/01/30 04:13:32;;;;;;;3.88;1.05;;;13.60;54.80;;;;;;6290334;22;20015;-78
2021/01/30 04:15:57;;;;;;;2.92;1.23;;;13.50;54.80;;;;;;6290656;22;20015;-79
2021/01/30 04:18:26;;;;;;;1.80;0.88;;;13.50;54.70;;;;;;6280995;22;20020;-79
2021/01/30 04:20:52;;;;;;;2.45;0.77;;;13.50;54.70;;;;;;6290067;22;20491;-78
2021/01/30 04:23:17;;;;;;;1.52;0.90;;;13.50;55.30;;;;;;6289909;22;20016;-79
2021/01/30 04:25:43;;;;;;;1.90;0.68;;;13.50;54.70;;;;;;6279549;22;20321;-79
2021/01/30 04:28:09;;;;;;;1.88;0.75;;;13.50;54.60;;;;;;6290330;22;20026;-79
2021/01/30 04:30:35;;;;;;;4.18;1.17;;;13.50;54.60;;;;;;6288919;22;20012;-79
2021/01/30 04:33:01;;;;;;;2.20;0.80;;;13.50;54.60;;;;;;6290087;22;20351;-79
2021/01/30 04:35:30;;;;;;;2.25;0.47;;;13.50;54.50;;;;;;6290687;22;20015;-79
2021/01/30 04:37:57;;;;;;;2.83;0.88;;;13.50;54.50;;;;;;6290268;22;20012;-78
2021/01/30 04:40:36;;;;;;;0.95;0.57;;;13.50;54.50;;;;;;6290070;22;20016;-79
2021/01/30 04:43:25;;;;;;;2.17;0.95;;;13.50;54.40;;;;;;6290168;22;20012;-79
2021/01/30 04:46:01;;;;;;;1.83;0.80;;;13.50;54.40;;;;;;6279891;22;20026;-79
2021/01/30 04:48:44;;;;;;;2.03;0.60;;;13.50;54.40;;;;;;6280165;22;20040;-78
2021/01/30 04:51:16;;;;;;;1.77;0.70;;;13.50;54.30;;;;;;6289529;22;20477;-79
2021/01/30 04:54:00;;;;;;;2.08;0.73;;;13.50;54.30;;;;;;6289889;22;20024;-79
2021/01/30 04:57:03;;;;;;;1.65;0.70;;;13.50;54.30;;;;;;6289009;22;20026;-79
2021/01/30 04:59:39;;;;;;;1.88;0.70;;;13.50;54.30;;;;;;6289484;22;20019;-80
2021/01/30 05:02:49;;;;;;;1.83;0.80;;;13.50;54.30;;;;;;6289696;22;20073;-79
2021/01/30 05:05:19;;;;;;;2.85;0.88;;;13.50;54.20;;;;;;6254090;22;20015;-79
2021/01/30 05:07:51;;;;;;;3.22;0.60;;;13.50;54.40;;;;;;6289797;22;20304;-75
2021/01/30 05:10:41;;;;;;;4.78;0.65;;;13.50;54.60;;;;;;6279421;22;20054;-75
2021/01/30 05:13:37;;;;;;;6.68;0.73;;;13.50;54.90;;;;;;6279841;22;20026;-74
2021/01/30 05:16:12;;;;;;;2.72;0.60;;;13.50;55.20;;;;;;6289787;22;20018;-77
2021/01/30 05:18:45;;;;;;;2.55;0.98;;;13.60;56.10;;;;;;6290518;22;20017;-77
2021/01/30 05:21:14;;;;;;;;;;;13.60;55.70;;;;;;6290590;22;20023;-78
2021/01/30 05:23:44;;;;;;;1.98;0.60;;;13.60;55.70;;;;;;6279579;22;20212;-78
2021/01/30 05:26:21;;;;;;;9.05;1.38;;;13.70;56.10;;;;;;6289233;22;20016;-76
2021/01/30 05:28:53;;;;;;;3.90;0.95;;;13.80;56.60;;;;;;6289435;22;20016;-78
2021/01/30 05:31:38;;;;;;;1.95;1.00;;;13.80;56.70;;;;;;6289463;22;20020;-77
2021/01/30 05:34:25;;;;;;;7.95;1.15;;;13.90;56.90;;;;;;6289593;22;20016;-77
2021/01/30 05:36:58;;;;;;;1.55;0.82;;;13.90;57.00;;;;;;6289228;22;20341;-77
2021/01/30 05:39:56;;;;;;;3.45;0.90;;;14.00;57.20;;;;;;6289621;22;20019;-77
2021/01/30 05:42:22;;;;;;;3.42;0.50;;;14.10;57.20;;;;;;6289959;22;20450;-78
2021/01/30 05:45:07;;;;;;;2.75;0.63;;;14.10;57.40;;;;;;6289059;22;20012;-78
2021/01/30 05:47:35;;;;;;;3.53;0.73;;;14.20;57.40;;;;;;6279314;22;20428;-78
2021/01/30 05:50:13;;;;;;;6.20;0.90;;;14.30;57.30;;;;;;6289958;22;20067;-78
2021/01/30 05:52:40;;;;;;;4.03;0.70;;;14.30;57.30;;;;;;6279001;22;20027;-77
2021/01/30 05:55:31;;;;;;;3.80;0.30;;;14.40;57.60;;;;;;6289759;22;20413;-77
2021/01/30 05:58:02;;;;;;;5.82;0.90;;;14.50;57.70;;;;;;6289226;22;20023;-77
2021/01/30 06:00:29;;;;;;;3.78;0.80;;;14.50;57.50;;;;;;6289232;22;20011;-75
2021/01/30 06:03:07;;;;;;;4.70;0.70;;;14.60;57.30;;;;;;6288781;22;20096;-77
2021/01/30 06:05:42;;;;;;;4.47;0.50;;;14.60;57.30;;;;;;6278493;22;20350;-77
2021/01/30 06:08:12;;;;;;;5.80;0.70;;;14.70;57.30;;;;;;6289443;22;20085;-75
2021/01/30 06:10:39;;;;;;;14.75;0.98;;;14.70;57.40;;;;;;6288488;22;20042;-78
2021/01/30 06:13:26;;;;;;;3.55;0.52;;;14.70;57.50;;;;;;6288824;22;20083;-79
2021/01/30 06:15:57;;;;;;;5.93;1.13;;;14.80;57.40;;;;;;6289580;22;20012;-78
2021/01/30 06:18:41;;;;;;;10.88;0.77;;;14.80;57.50;;;;;;6278954;22;20011;-79
2021/01/30 06:21:20;;;;;;;11.80;1.65;;;14.90;57.30;;;;;;6278236;22;20012;-79
2021/01/30 06:24:24;;;;;;;8.52;1.10;;;14.90;57.30;;;;;;6288534;22;20487;-79
2021/01/30 06:26:51;;;;;;;9.13;0.80;;;15.00;57.40;;;;;;6280159;22;20337;-76
2021/01/30 06:29:42;;;;;;;10.98;1.15;;;15.00;57.20;;;;;;6289865;22;20035;-78
2021/01/30 06:32:20;;;;;;;14.90;1.13;;;15.00;57.50;;;;;;6288900;22;20058;-77
2021/01/30 06:35:10;;;;;;;8.57;1.02;;;15.10;57.70;;;;;;6277426;22;20086;-79
2021/01/30 06:38:03;;;;;;;4.78;1.17;;;15.10;58.00;;;;;;6288650;22;20107;-79
2021/01/30 06:40:34;;;;;;;13.85;2.03;;;15.10;57.70;;;;;;6289119;22;20091;-79
2021/01/30 06:43:12;;;;;;;5.28;1.02;;;15.20;57.60;;;;;;6279540;22;20122;-80
2021/01/30 06:45:40;;;;;;;9.52;1.30;;;15.20;57.70;;;;;;6288802;22;20077;-80
2021/01/30 06:48:28;;;;;;;8.48;0.95;;;15.30;57.80;;;;;;6277312;22;20020;-81
2021/01/30 06:50:55;;;;;;;12.68;1.40;;;15.30;57.70;;;;;;6251260;22;20058;-80
2021/01/30 06:53:34;;;;;;;10.82;1.67;;;15.40;57.80;;;;;;6279172;22;20015;-81
2021/01/30 06:56:21;;;;;;;8.70;0.95;;;15.40;57.90;;;;;;6288534;22;20030;-79
2021/01/30 06:58:48;;;;;;;10.43;1.50;;;15.50;58.10;;;;;;6277126;22;20065;-80
2021/01/30 07:01:38;;;;;;;12.00;1.67;;;15.50;55.80;;;;;;6277242;22;20020;-78
2021/01/30 07:04:10;;;;;;;8.45;1.38;;;15.50;56.90;;;;;;6289556;22;20413;-79
2021/01/30 07:06:50;;;;;;;6.75;1.20;;;15.50;57.70;;;;;;6277625;22;20081;-80
2021/01/30 07:09:34;;;;;;;8.15;1.48;;;15.50;58.10;;;;;;6289144;22;20065;-77
2021/01/30 07:12:32;;;;;;;24.13;2.70;;;15.60;58.50;;;;;;6287576;22;20090;-78
2021/01/30 07:15:07;;;;;;;9.88;1.77;;;15.60;57.60;;;;;;6288963;22;20012;-79
2021/01/30 07:17:53;;;;;;;12.05;1.65;;;15.50;57.00;;;;;;6279330;22;20011;-79
2021/01/30 07:20:30;;;;;;;5.82;1.23;;;15.50;57.40;;;;;;6289521;22;20081;-79
2021/01/30 07:23:13;;;;;;;4.28;1.48;;;15.50;57.30;;;;;;6291223;22;20098;-79
2021/01/30 07:25:57;;;;;;;2.80;1.30;;;15.50;56.50;;;;;;6279994;22;20023;-79
2021/01/30 07:28:40;;;;;;;5.07;1.30;;;15.50;56.70;;;;;;6289422;22;20015;-79
2021/01/30 07:31:21;;;;;;;3.78;0.85;;;15.50;56.70;;;;;;6281055;22;20288;-78
2021/01/30 07:33:50;;;;;;;8.93;1.45;;;15.50;57.00;;;;;;6290465;22;20016;-78
2021/01/30 07:36:30;;;;;;;6.18;1.00;;;15.50;57.10;;;;;;6280461;22;20058;-80
2021/01/30 07:39:19;;;;;;;3.47;1.13;;;15.50;57.10;;;;;;6280090;22;20073;-80
2021/01/30 07:42:01;;;;;;;7.85;1.60;;;15.50;57.30;;;;;;6280678;22;20428;-79
2021/01/30 07:45:09;;;;;;;5.40;1.25;;;15.60;57.20;;;;;;6279335;22;20019;-79
2021/01/30 07:47:40;;;;;;;4.10;1.55;;;15.60;57.00;;;;;;6213453;22;20016;-79
2021/01/30 07:50:20;;;;;;;2.83;1.02;;;15.60;56.90;;;;;;6291249;22;20016;-79
2021/01/30 07:53:17;;;;;;;8.93;1.38;;;15.60;56.70;;;;;;6290043;22;20026;-79
2021/01/30 07:55:56;;;;;;;5.75;1.38;;;15.60;56.40;;;;;;6256650;22;20039;-79
2021/01/30 07:58:32;;;;;;;7.22;1.25;;;15.50;56.10;;;;;;6289961;22;20281;-79
2021/01/30 08:01:30;;;;;;;9.75;1.38;;;15.50;56.00;;;;;;6289763;22;20019;-77
2021/01/30 08:04:22;;;;;;;13.63;1.52;;;15.60;56.40;;;;;;6290818;22;20020;-76
2021/01/30 08:06:54;;;;;;;12.82;1.95;;;15.60;56.70;;;;;;6290461;22;20114;-77
2021/01/30 08:09:28;;;;;;;9.55;1.13;;;15.70;56.80;;;;;;6290673;22;20042;-78
2021/01/30 08:12:14;;;;;;;8.07;1.17;;;15.70;56.70;;;;;;6280197;22;20019;-77
2021/01/30 08:15:11;;;;;;;5.18;1.50;;;15.80;56.80;;;;;;6280187;22;20015;-79
2021/01/30 08:17:42;;;;;;;10.82;1.38;;;15.80;56.50;;;;;;6256823;22;20026;-80
2021/01/30 08:20:24;;;;;;;6.90;1.63;;;15.80;56.30;;;;;;6289495;22;20078;-78
2021/01/30 08:23:13;;;;;;;12.10;1.98;;;15.80;54.70;;;;;;6290599;22;20038;-76
2021/01/30 08:26:20;;;;;;;16.63;2.60;;;15.70;53.80;;;;;;6280999;22;20022;-86
2021/01/30 08:29:23;;;;;;;5.97;1.58;;;15.70;53.90;;;;;;6277206;22;20057;-84
2021/01/30 09:20:26;;;;;;;15.32;2.13;;;15.80;54.40;;;;;;6278406;22;20030;-77
2021/01/30 09:23:10;;;;;;;16.42;3.05;;;15.80;54.30;;;;;;6226571;22;20051;-78
2021/01/30 09:25:41;;;;;;;;;;;15.70;52.40;;;;;;6278920;22;20053;-76
2021/01/30 09:28:18;;;;;;;10.43;2.00;;;15.60;53.60;;;;;;6251524;22;19953;-81
2021/01/30 09:31:05;;;;;;;15.20;3.22;;;15.50;53.70;;;;;;6288648;22;20081;-82
2021/01/30 09:33:45;;;;;;;17.05;2.88;;;15.50;54.30;;;;;;6227868;22;20027;-81
2021/01/30 09:36:22;;;;;;;10.13;2.30;;;15.60;54.80;;;;;;6226701;22;20432;-78
2021/01/30 09:39:20;;;;;;;13.50;2.50;;;15.60;54.70;;;;;;6227120;22;20099;-83
2021/01/30 09:42:54;;;;;;;13.32;2.35;;;15.50;54.70;;;;;;6218678;22;20026;-82
2021/01/30 09:45:35;;;;;;;14.02;2.55;;;15.60;54.50;;;;;;6249737;22;20027;-81
2021/01/30 09:48:10;;;;;;;14.00;2.83;;;15.60;54.40;;;;;;6227378;22;20027;-82
2021/01/30 09:50:43;;;;;;;9.55;2.22;;;15.60;54.50;;;;;;6226915;22;20042;-81
2021/01/30 09:53:14;;;;;;;16.98;2.00;;;15.60;54.40;;;;;;6227222;22;20020;-78
2021/01/30 09:55:40;;;;;;;12.98;2.30;;;15.60;54.60;;;;;;6226593;22;20024;-79
2021/01/30 09:58:25;;;;;;;13.95;3.33;;;15.70;55.50;;;;;;6251661;22;20023;-81
2021/01/30 10:00:54;;;;;;;17.25;2.35;;;15.60;52.90;;;;;;6225997;22;20043;-81
2021/01/30 10:03:51;;;;;;;9.57;1.73;;;15.50;53.90;;;;;;6226904;22;20366;-82
2021/01/30 10:06:27;;;;;;;16.15;2.65;;;15.50;54.10;;;;;;6278273;22;20050;-82
2021/01/30 10:08:53;;;;;;;16.92;2.28;;;15.40;53.20;;;;;;6226831;22;20309;-80
2021/01/30 10:11:27;;;;;;;17.58;2.78;;;15.40;53.90;;;;;;6289747;22;20065;-84
2021/01/30 10:14:01;;;;;;;8.93;1.90;;;15.40;54.30;;;;;;6226719;22;20087;-85
2021/01/30 10:16:34;;;;;;;17.17;2.85;;;15.50;54.60;;;;;;6251752;22;20294;-84
2021/01/30 10:19:23;;;;;;;15.68;3.53;;;15.50;53.00;;;;;;6227583;22;20026;-84
2021/01/30 10:21:50;;;;;;;8.93;2.65;;;15.40;49.20;;;;;;6226494;22;20012;-80
2021/01/30 10:24:24;;;;;;;14.35;2.75;;;15.30;50.90;;;;;;6251410;22;20429;-84
2021/01/30 10:26:53;;;;;;;15.35;2.88;;;15.30;52.40;;;;;;6251969;22;20417;-83
2021/01/30 10:29:22;;;;;;;6.82;2.63;;;15.30;53.10;;;;;;6288463;22;20012;-81
2021/01/30 10:32:02;;;;;;;7.85;3.00;;;15.30;50.10;;;;;;6251726;22;20023;-82
2021/01/30 10:34:42;;;;;;;6.85;3.15;;;15.10;47.40;;;;;;6288431;22;20015;-82
2021/01/30 10:37:17;;;;;;;16.80;2.80;;;14.70;47.50;;;;;;6252400;22;20043;-78
2021/01/30 10:39:51;;;;;;;11.30;3.13;;;14.60;49.90;;;;;;6289053;22;20018;-80
2021/01/30 10:42:23;;;;;;;7.63;2.42;;;14.50;48.20;;;;;;6252400;22;20423;-80
2021/01/30 10:45:03;;;;;;;10.15;2.72;;;14.40;48.80;;;;;;6288906;22;20008;-81
2021/01/30 10:47:29;;;;;;;6.43;2.85;;;14.50;48.10;;;;;;6251821;22;20022;-79
2021/01/30 10:50:09;;;;;;;5.00;2.15;;;14.40;47.60;;;;;;6289081;22;20076;-79
2021/01/30 10:52:35;;;;;;;6.38;2.25;;;14.40;48.30;;;;;;6289945;22;20076;-79
2021/01/30 10:55:22;;;;;;;5.93;1.90;;;14.40;48.90;;;;;;6290724;22;20113;-79
2021/01/30 10:57:48;;;;;;;4.63;1.80;;;14.40;49.30;;;;;;6291645;22;20090;-78
2021/01/30 11:00:27;;;;;;;5.35;1.70;;;14.50;49.40;;;;;;6285380;22;20035;-80
2021/01/30 11:02:52;;;;;;;6.18;2.00;;;14.50;49.40;;;;;;6280510;22;20457;-80
2021/01/30 11:05:18;;;;;;;3.90;1.67;;;14.50;49.40;;;;;;6290994;22;20044;-78
2021/01/30 11:07:50;;;;;;;4.03;1.77;;;14.60;49.40;;;;;;6264786;22;20307;-81
2021/01/30 11:10:27;;;;;;;3.60;1.30;;;14.60;49.40;;;;;;6291223;22;20015;-79
2021/01/30 11:13:05;;;;;;;2.40;1.38;;;14.70;49.50;;;;;;6290991;22;20016;-80
2021/01/30 11:15:31;;;;;;;3.70;1.90;;;14.70;49.40;;;;;;6290942;22;20019;-78
2021/01/30 11:18:28;;;;;;;2.50;1.60;;;14.70;49.40;;;;;;6291424;22;20012;-80
2021/01/30 11:20:56;;;;;;;5.07;1.67;;;14.70;49.30;;;;;;6291068;22;20332;-79
2021/01/30 11:23:39;;;;;;;2.63;1.70;;;14.70;49.30;;;;;;6254055;22;20099;-81
2021/01/30 11:26:11;;;;;;;5.25;1.50;;;14.70;49.20;;;;;;6290393;22;20098;-79
2021/01/30 11:28:37;;;;;;;2.30;1.80;;;14.70;49.30;;;;;;6290945;22;20090;-79
2021/01/30 11:31:04;;;;;;;2.22;1.40;;;14.70;49.30;;;;;;6290367;22;20039;-80
2021/01/30 11:33:31;;;;;;;2.10;1.38;;;14.70;49.30;;;;;;6290986;22;20016;-79
2021/01/30 11:35:57;;;;;;;3.58;1.70;;;14.70;49.30;;;;;;6290652;22;20019;-79
2021/01/30 11:38:26;;;;;;;2.65;1.70;;;14.80;49.20;;;;;;6264126;22;20011;-80
2021/01/30 11:40:55;;;;;;;2.60;1.33;;;14.70;49.20;;;;;;6290588;22;20154;-80
2021/01/30 11:43:21;;;;;;;4.35;1.83;;;14.70;49.10;;;;;;6290349;22;20424;-79
2021/01/30 11:45:48;;;;;;;3.15;1.92;;;14.70;49.10;;;;;;6290616;22;20087;-80
2021/01/30 11:48:14;;;;;;;2.65;1.55;;;14.80;49.20;;;;;;6280550;22;20073;-79
2021/01/30 11:50:40;;;;;;;4.13;1.88;;;14.80;49.20;;;;;;6290196;22;20305;-80
2021/01/30 11:53:08;;;;;;;3.05;1.50;;;14.80;49.10;;;;;;6290601;22;20015;-80
2021/01/30 11:55:35;;;;;;;4.32;2.10;;;14.80;49.10;;;;;;6279871;22;20089;-78
2021/01/30 11:58:01;;;;;;;1.88;1.58;;;14.80;49.10;;;;;;6290353;22;20542;-79
2021/01/30 12:00:27;;;;;;;2.72;1.85;;;14.80;49.00;;;;;;6283193;22;20015;-80
2021/01/30 12:02:53;;;;;;;2.00;1.60;;;14.80;49.00;;;;;;6290400;22;20031;-79
2021/01/30 12:05:20;;;;;;;3.55;2.08;;;14.80;49.00;;;;;;6289806;22;20039;-79
2021/01/30 12:07:45;;;;;;;2.92;1.70;;;14.80;49.00;;;;;;6290431;22;20015;-80
2021/01/30 12:10:12;;;;;;;4.70;1.58;;;14.80;49.00;;;;;;6290754;22;20101;-79
2021/01/30 12:12:38;;;;;;;3.10;1.60;;;14.80;49.00;;;;;;6290649;22;20071;-81
2021/01/30 12:15:06;;;;;;;2.85;1.77;;;14.80;48.90;;;;;;6290223;22;20011;-79
2021/01/30 12:17:36;;;;;;;2.78;1.73;;;14.80;48.80;;;;;;6290362;22;20022;-80
2021/01/30 12:20:12;;;;;;;3.72;1.88;;;14.80;48.90;;;;;;6279904;22;20038;-79
2021/01/30 12:22:45;;;;;;;3.13;1.40;;;14.80;48.80;;;;;;6283463;22;20408;-80
2021/01/30 12:25:12;;;;;;;1.98;1.67;;;14.80;48.80;;;;;;6280093;22;20392;-79
2021/01/30 12:27:41;;;;;;;2.30;1.55;;;14.80;48.80;;;;;;6290147;22;20016;-80
2021/01/30 12:30:08;;;;;;;2.53;1.60;;;14.80;48.80;;;;;;6263527;22;20061;-80
2021/01/30 12:32:35;;;;;;;2.72;1.60;;;14.80;48.80;;;;;;6290275;22;20428;-80
2021/01/30 12:35:06;;;;;;;2.35;1.75;;;14.70;48.80;;;;;;6289811;22;20545;-79
2021/01/30 12:37:33;;;;;;;2.65;1.70;;;14.80;48.80;;;;;;6289587;22;20019;-84
2021/01/30 12:39:59;;;;;;;5.90;2.40;;;14.70;48.70;;;;;;6252776;22;20038;-80
2021/01/30 12:42:25;;;;;;;10.77;2.38;;;14.70;47.70;;;;;;6253044;22;20015;-78
2021/01/30 12:44:51;;;;;;;9.25;1.55;;;14.70;48.40;;;;;;6289606;22;20020;-80
2021/01/30 12:47:24;;;;;;;8.15;2.22;;;14.60;49.30;;;;;;6279689;22;20030;-81
2021/01/30 12:49:50;;;;;;;7.28;3.50;;;14.60;49.70;;;;;;6252115;22;20023;-78
2021/01/30 12:52:16;;;;;;;5.13;2.45;;;14.60;47.60;;;;;;6289597;22;20015;-79
2021/01/30 12:54:42;;;;;;;5.90;2.25;;;14.50;48.10;;;;;;6278566;22;20020;-82
2021/01/30 12:57:07;;;;;;;8.27;1.55;;;14.50;49.20;;;;;;6252385;22;20107;-78
2021/01/30 12:59:33;;;;;;;14.93;1.70;;;14.60;50.20;;;;;;6286238;22;20043;-79
2021/01/30 13:01:59;;;;;;;10.80;1.83;;;14.60;50.60;;;;;;6262671;22;20086;-79
2021/01/30 13:04:25;;;;;;;6.18;0.93;;;14.70;51.20;;;;;;6289546;22;20359;-79
2021/01/30 13:06:51;;;;;;;15.18;1.50;;;14.80;51.90;;;;;;6289279;22;20023;-76
2021/01/30 13:09:20;;;;;;;3.97;1.02;;;14.90;51.40;;;;;;6289593;22;20011;-75
2021/01/30 13:11:52;;;;;;;9.18;2.17;;;15.00;51.40;;;;;;6277952;22;20011;-75
2021/01/30 13:14:18;;;;;;;12.93;2.00;;;15.00;50.80;;;;;;6288504;22;20016;-76
2021/01/30 13:16:45;;;;;;;4.90;1.20;;;15.10;51.00;;;;;;6289311;22;20034;-81
2021/01/30 13:19:12;;;;;;;3.20;1.30;;;15.10;51.40;;;;;;6289296;22;20452;-77
2021/01/30 13:21:39;;;;;;;6.97;1.48;;;15.10;51.60;;;;;;6289509;22;20016;-76
2021/01/30 13:24:06;;;;;;;6.80;1.05;;;15.20;51.70;;;;;;6289583;22;20095;-78
2021/01/30 13:26:40;;;;;;;10.13;2.03;;;15.20;51.80;;;;;;6289259;22;20073;-75
2021/01/30 13:29:14;;;;;;;;;;;15.30;52.10;;;;;;6279589;22;20012;-75
2021/01/30 13:31:42;;;;;;;3.57;0.90;;;15.30;51.90;;;;;;6262707;22;19989;-76
2021/01/30 13:34:09;;;;;;;11.13;2.35;;;15.40;52.10;;;;;;6289356;22;20140;-74
2021/01/30 13:36:35;;;;;;;4.22;1.90;;;15.40;51.90;;;;;;6289549;22;20016;-75
2021/01/30 13:39:02;;;;;;;5.30;1.50;;;15.50;51.80;;;;;;6289072;22;20015;-73
2021/01/30 13:41:28;;;;;;;12.88;1.67;;;15.50;52.00;;;;;;6289052;22;20015;-77
2021/01/30 13:43:56;;;;;;;4.60;1.70;;;15.40;52.00;;;;;;6289017;22;20286;-74
2021/01/30 13:46:22;;;;;;;10.73;1.45;;;15.40;52.00;;;;;;6289009;22;20012;-73
2021/01/30 13:48:48;;;;;;;11.20;1.85;;;15.50;52.00;;;;;;6289283;22;20080;-73
2021/01/30 13:51:13;;;;;;;11.02;2.10;;;15.50;52.00;;;;;;6289019;22;20023;-74
2021/01/30 13:53:40;;;;;;;14.05;1.30;;;15.50;51.90;;;;;;6289218;22;20031;-73
2021/01/30 13:56:06;;;;;;;7.55;2.13;;;15.60;52.20;;;;;;6279010;22;20039;-74
2021/01/30 13:58:32;;;;;;;10.60;1.98;;;15.60;52.00;;;;;;6288756;22;20012;-74
2021/01/30 14:00:58;;;;;;;6.45;2.13;;;15.60;51.90;;;;;;6279694;22;20065;-74
2021/01/30 14:03:24;;;;;;;9.45;2.55;;;15.60;51.90;;;;;;6289714;22;20098;-73
2021/01/30 14:05:49;;;;;;;6.85;1.90;;;15.60;52.00;;;;;;6289352;22;20416;-74